Nixon, Mississippi
Current Conditions -  °F | °C
As of 12:53 AM on Thursday 18 Dec 2014 (Local Time) from KTUP Reporting Station
Broken Clouds Broken Clouds  
Wind Chill:   Ceiling: 8000
Heat Index:   Visibility: 10mi
Dew Point:   Wind: 8mph
Humidity: 73%   Direction: 30°NNE
Pressure: 30.25"   Gusts: NA
Location:  34.1762°N, 88.9612°W
Report Text: KTUP 180653Z AUTO 03007KT 10SM BKN080 BKN120 05/01 A3025 RMK AO2 SLP243 T00500006
Loading
Personal Weather Stations






























Interactive Weather Map New forecast layout! Learn more

10-Day Weather Forecast

Advertisements
Track Severe Weather on mobile